sensor_id;sensor_type;location;lat;lon;timestamp;pressure;altitude;pressure_sealevel;temperature;humidity
12178;BME280;6152;48.728;9.256;2023-01-26T00:01:14;97607.91;;;0.28;100.00
12178;BME280;6152;48.728;9.256;2023-01-26T00:03:40;97606.19;;;0.30;100.00
12178;BME280;6152;48.728;9.256;2023-01-26T00:06:09;97605.38;;;0.25;100.00
12178;BME280;6152;48.728;9.256;2023-01-26T00:08:46;97595.19;;;0.21;100.00
12178;BME280;6152;48.728;9.256;2023-01-26T00:11:15;97591.84;;;0.17;100.00
12178;BME280;6152;48.728;9.256;2023-01-26T00:13:42;97591.84;;;0.17;100.00
12178;BME280;6152;48.728;9.256;2023-01-26T00:16:10;97590.16;;;0.16;100.00
12178;BME280;6152;48.728;9.256;2023-01-26T00:18:37;97588.53;;;0.09;100.00
12178;BME280;6152;48.728;9.256;2023-01-26T00:21:04;97588.53;;;0.09;100.00
12178;BME280;6152;48.728;9.256;2023-01-26T00:23:32;97581.75;;;0.05;100.00
12178;BME280;6152;48.728;9.256;2023-01-26T00:25:59;97584.31;;;0.04;100.00
12178;BME280;6152;48.728;9.256;2023-01-26T00:28:27;97572.41;;;0.01;100.00
12178;BME280;6152;48.728;9.256;2023-01-26T00:30:58;97564.72;;;0.01;100.00
12178;BME280;6152;48.728;9.256;2023-01-26T00:33:26;97560.47;;;0.02;100.00
12178;BME280;6152;48.728;9.256;2023-01-26T00:35:54;97556.28;;;-0.04;100.00
12178;BME280;6152;48.728;9.256;2023-01-26T00:38:20;97554.53;;;-0.02;100.00
12178;BME280;6152;48.728;9.256;2023-01-26T00:40:46;97551.16;;;-0.04;100.00
12178;BME280;6152;48.728;9.256;2023-01-26T00:43:12;97549.47;;;-0.05;100.00
12178;BME280;6152;48.728;9.256;2023-01-26T00:45:38;97547.88;;;-0.15;100.00
12178;BME280;6152;48.728;9.256;2023-01-26T00:48:04;97539.34;;;-0.16;100.00
12178;BME280;6152;48.728;9.256;2023-01-26T00:50:31;97540.22;;;-0.15;100.00
12178;BME280;6152;48.728;9.256;2023-01-26T00:52:58;97548.75;;;-0.16;100.00
12178;BME280;6152;48.728;9.256;2023-01-26T00:55:24;97537.56;;;-0.09;100.00
12178;BME280;6152;48.728;9.256;2023-01-26T00:58:00;97529.97;;;-0.15;100.00
12178;BME280;6152;48.728;9.256;2023-01-26T01:00:27;97531.66;;;-0.13;100.00
12178;BME280;6152;48.728;9.256;2023-01-26T01:02:53;97535.88;;;-0.10;100.00
12178;BME280;6152;48.728;9.256;2023-01-26T01:05:22;97539.34;;;-0.14;100.00
12178;BME280;6152;48.728;9.256;2023-01-26T01:07:48;97534.31;;;-0.23;100.00
12178;BME280;6152;48.728;9.256;2023-01-26T01:10:14;97527.50;;;-0.21;100.00
12178;BME280;6152;48.728;9.256;2023-01-26T01:12:44;97528.28;;;-0.16;100.00
12178;BME280;6152;48.728;9.256;2023-01-26T01:15:11;97530.75;;;-0.10;100.00
12178;BME280;6152;48.728;9.256;2023-01-26T01:17:37;97529.06;;;-0.10;100.00
12178;BME280;6152;48.728;9.256;2023-01-26T01:20:09;97513.78;;;-0.14;100.00
12178;BME280;6152;48.728;9.256;2023-01-26T01:22:36;97523.16;;;-0.15;100.00
12178;BME280;6152;48.728;9.256;2023-01-26T01:25:02;97522.28;;;-0.12;100.00
12178;BME280;6152;48.728;9.256;2023-01-26T01:27:29;97529.91;;;-0.09;100.00
12178;BME280;6152;48.728;9.256;2023-01-26T01:29:55;97527.34;;;-0.09;100.00
12178;BME280;6152;48.728;9.256;2023-01-26T01:32:21;97524.78;;;-0.09;100.00
12178;BME280;6152;48.728;9.256;2023-01-26T01:34:47;97528.19;;;-0.10;100.00
12178;BME280;6152;48.728;9.256;2023-01-26T01:37:14;97516.47;;;-0.25;100.00
12178;BME280;6152;48.728;9.256;2023-01-26T01:39:41;97516.50;;;-0.29;100.00
12178;BME280;6152;48.728;9.256;2023-01-26T01:42:07;97517.31;;;-0.27;100.00
12178;BME280;6152;48.728;9.256;2023-01-26T01:44:37;97513.13;;;-0.33;100.00
12178;BME280;6152;48.728;9.256;2023-01-26T01:47:09;97517.41;;;-0.32;100.00
12178;BME280;6152;48.728;9.256;2023-01-26T01:49:48;97509.72;;;-0.32;100.00
12178;BME280;6152;48.728;9.256;2023-01-26T01:52:21;97507.22;;;-0.36;100.00
12178;BME280;6152;48.728;9.256;2023-01-26T01:54:57;97507.25;;;-0.39;100.00
12178;BME280;6152;48.728;9.256;2023-01-26T01:57:30;97507.22;;;-0.36;100.00
12178;BME280;6152;48.728;9.256;2023-01-26T02:00:11;97512.25;;;-0.30;100.00
12178;BME280;6152;48.728;9.256;2023-01-26T02:02:39;97501.16;;;-0.29;100.00
12178;BME280;6152;48.728;9.256;2023-01-26T02:05:23;97505.44;;;-0.28;100.00
12178;BME280;6152;48.728;9.256;2023-01-26T02:07:51;97507.09;;;-0.27;100.00
12178;BME280;6152;48.728;9.256;2023-01-26T02:10:19;97508.78;;;-0.25;100.00
12178;BME280;6152;48.728;9.256;2023-01-26T02:12:47;97503.66;;;-0.23;100.00
12178;BME280;6152;48.728;9.256;2023-01-26T02:15:15;97494.28;;;-0.23;100.00
12178;BME280;6152;48.728;9.256;2023-01-26T02:17:41;97485.81;;;-0.29;100.00
12178;BME280;6152;48.728;9.256;2023-01-26T02:20:21;97490.94;;;-0.31;100.00
12178;BME280;6152;48.728;9.256;2023-01-26T02:22:55;97484.94;;;-0.25;100.00
12178;BME280;6152;48.728;9.256;2023-01-26T02:28:19;97479.09;;;-0.36;100.00
12178;BME280;6152;48.728;9.256;2023-01-26T02:30:46;97478.31;;;-0.44;100.00
12178;BME280;6152;48.728;9.256;2023-01-26T02:33:23;97478.31;;;-0.44;100.00
12178;BME280;6152;48.728;9.256;2023-01-26T02:35:49;97481.84;;;-0.55;100.00
12178;BME280;6152;48.728;9.256;2023-01-26T02:38:16;97481.84;;;-0.55;100.00
12178;BME280;6152;48.728;9.256;2023-01-26T02:40:54;97472.50;;;-0.56;100.00
12178;BME280;6152;48.728;9.256;2023-01-26T02:43:22;97469.06;;;-0.53;100.00
12178;BME280;6152;48.728;9.256;2023-01-26T02:45:49;97471.63;;;-0.55;100.00
12178;BME280;6152;48.728;9.256;2023-01-26T02:48:15;97471.63;;;-0.53;100.00
12178;BME280;6152;48.728;9.256;2023-01-26T02:51:02;97457.19;;;-0.57;100.00
12178;BME280;6152;48.728;9.256;2023-01-26T02:53:28;97456.38;;;-0.59;100.00
12178;BME280;6152;48.728;9.256;2023-01-26T02:55:55;97461.47;;;-0.61;100.00
12178;BME280;6152;48.728;9.256;2023-01-26T02:58:21;97463.22;;;-0.63;100.00
12178;BME280;6152;48.728;9.256;2023-01-26T03:00:47;97455.56;;;-0.63;100.00
12178;BME280;6152;48.728;9.256;2023-01-26T03:03:32;97456.34;;;-0.58;100.00
12178;BME280;6152;48.728;9.256;2023-01-26T03:06:10;97454.59;;;-0.54;100.00
12178;BME280;6152;48.728;9.256;2023-01-26T03:08:37;97457.88;;;-0.44;100.00
12178;BME280;6152;48.728;9.256;2023-01-26T03:11:04;97448.50;;;-0.44;100.00
12178;BME280;6152;48.728;9.256;2023-01-26T03:13:31;97444.13;;;-0.34;100.00
12178;BME280;6152;48.728;9.256;2023-01-26T03:15:57;97439.00;;;-0.34;100.00
12178;BME280;6152;48.728;9.256;2023-01-26T03:18:27;97440.63;;;-0.27;100.00
12178;BME280;6152;48.728;9.256;2023-01-26T03:21:14;97433.78;;;-0.25;100.00
12178;BME280;6152;48.728;9.256;2023-01-26T03:23:59;97439.72;;;-0.22;100.00
12178;BME280;6152;48.728;9.256;2023-01-26T03:26:44;97437.13;;;-0.20;100.00
12178;BME280;6152;48.728;9.256;2023-01-26T03:29:29;97425.13;;;-0.15;100.00
12178;BME280;6152;48.728;9.256;2023-01-26T03:31:56;97422.72;;;-0.24;100.00
12178;BME280;6152;48.728;9.256;2023-01-26T03:34:24;97421.88;;;-0.26;100.00
12178;BME280;6152;48.728;9.256;2023-01-26T03:36:50;97416.81;;;-0.31;100.00
12178;BME280;6152;48.728;9.256;2023-01-26T03:39:17;97420.19;;;-0.29;100.00
12178;BME280;6152;48.728;9.256;2023-01-26T03:42:02;97416.88;;;-0.35;100.00
12178;BME280;6152;48.728;9.256;2023-01-26T03:44:47;97415.19;;;-0.36;100.00
12178;BME280;6152;48.728;9.256;2023-01-26T03:47:33;97418.56;;;-0.34;100.00
12178;BME280;6152;48.728;9.256;2023-01-26T03:50:18;97416.94;;;-0.38;100.00
12178;BME280;6152;48.728;9.256;2023-01-26T03:53:11;97428.75;;;-0.31;100.00
12178;BME280;6152;48.728;9.256;2023-01-26T03:55:55;97427.88;;;-0.29;100.00
12178;BME280;6152;48.728;9.256;2023-01-26T03:58:40;97420.25;;;-0.33;100.00
12178;BME280;6152;48.728;9.256;2023-01-26T04:01:06;97423.72;;;-0.37;100.00
12178;BME280;6152;48.728;9.256;2023-01-26T04:03:35;97427.16;;;-0.40;100.00
12178;BME280;6152;48.728;9.256;2023-01-26T04:06:20;97429.56;;;-0.28;100.00
12178;BME280;6152;48.728;9.256;2023-01-26T04:09:05;97428.75;;;-0.31;100.00
12178;BME280;6152;48.728;9.256;2023-01-26T04:11:31;97424.56;;;-0.35;100.00
12178;BME280;6152;48.728;9.256;2023-01-26T04:13:57;97422.84;;;-0.36;100.00
12178;BME280;6152;48.728;9.256;2023-01-26T04:16:41;97416.97;;;-0.41;100.00
12178;BME280;6152;48.728;9.256;2023-01-26T04:19:26;97423.66;;;-0.34;100.00
12178;BME280;6152;48.728;9.256;2023-01-26T04:22:11;97422.81;;;-0.33;100.00
12178;BME280;6152;48.728;9.256;2023-01-26T04:24:39;97424.47;;;-0.31;100.00
12178;BME280;6152;48.728;9.256;2023-01-26T04:27:05;97423.72;;;-0.37;100.00
12178;BME280;6152;48.728;9.256;2023-01-26T04:29:31;97422.00;;;-0.35;100.00
12178;BME280;6152;48.728;9.256;2023-01-26T04:31:57;97415.19;;;-0.36;100.00
12178;BME280;6152;48.728;9.256;2023-01-26T04:34:23;97415.97;;;-0.31;100.00
12178;BME280;6152;48.728;9.256;2023-01-26T04:36:49;97417.69;;;-0.33;100.00
12178;BME280;6152;48.728;9.256;2023-01-26T04:39:15;97411.69;;;-0.29;100.00
12178;BME280;6152;48.728;9.256;2023-01-26T04:41:41;97410.78;;;-0.27;100.00
12178;BME280;6152;48.728;9.256;2023-01-26T04:44:08;97405.09;;;-0.45;100.00
12178;BME280;6152;48.728;9.256;2023-01-26T04:46:34;97401.81;;;-0.57;100.00
12178;BME280;6152;48.728;9.256;2023-01-26T04:49:00;97399.22;;;-0.54;100.00
12178;BME280;6152;48.728;9.256;2023-01-26T04:51:26;97398.34;;;-0.53;100.00
12178;BME280;6152;48.728;9.256;2023-01-26T04:53:53;97389.84;;;-0.55;100.00
12178;BME280;6152;48.728;9.256;2023-01-26T04:56:27;97386.38;;;-0.51;100.00
12178;BME280;6152;48.728;9.256;2023-01-26T04:58:54;97389.09;;;-0.61;100.00
12178;BME280;6152;48.728;9.256;2023-01-26T05:01:20;97398.41;;;-0.59;100.00
12178;BME280;6152;48.728;9.256;2023-01-26T05:03:47;97395.81;;;-0.54;100.00
12178;BME280;6152;48.728;9.256;2023-01-26T05:06:13;97396.69;;;-0.57;100.00
12178;BME280;6152;48.728;9.256;2023-01-26T05:08:39;97394.19;;;-0.60;100.00
12178;BME280;6152;48.728;9.256;2023-01-26T05:11:06;97400.09;;;-0.58;100.00
12178;BME280;6152;48.728;9.256;2023-01-26T05:13:32;97391.81;;;-0.75;100.00
12178;BME280;6152;48.728;9.256;2023-01-26T05:16:01;97395.13;;;-0.68;100.00
12178;BME280;6152;48.728;9.256;2023-01-26T05:18:27;97392.56;;;-0.67;100.00
12178;BME280;6152;48.728;9.256;2023-01-26T05:20:54;97401.09;;;-0.66;100.00
12178;BME280;6152;48.728;9.256;2023-01-26T05:23:20;97397.69;;;-0.67;100.00
12178;BME280;6152;48.728;9.256;2023-01-26T05:25:46;97398.50;;;-0.65;100.00
12178;BME280;6152;48.728;9.256;2023-01-26T05:28:12;97393.34;;;-0.62;100.00
12178;BME280;6152;48.728;9.256;2023-01-26T05:30:38;97398.53;;;-0.68;100.00
12178;BME280;6152;48.728;9.256;2023-01-26T05:33:06;97396.84;;;-0.69;100.00
12178;BME280;6152;48.728;9.256;2023-01-26T05:35:33;97400.31;;;-0.73;100.00
12178;BME280;6152;48.728;9.256;2023-01-26T05:37:59;97407.91;;;-0.67;100.00
12178;BME280;6152;48.728;9.256;2023-01-26T05:40:26;97403.69;;;-0.71;100.00
12178;BME280;6152;48.728;9.256;2023-01-26T05:42:53;97407.09;;;-0.72;100.00
12178;BME280;6152;48.728;9.256;2023-01-26T05:45:19;97401.16;;;-0.75;100.00
12178;BME280;6152;48.728;9.256;2023-01-26T05:47:46;97407.22;;;-0.81;100.00
12178;BME280;6152;48.728;9.256;2023-01-26T05:50:14;97414.91;;;-0.84;100.00
12178;BME280;6152;48.728;9.256;2023-01-26T05:52:42;97412.34;;;-0.84;100.00
12178;BME280;6152;48.728;9.256;2023-01-26T05:55:08;97409.75;;;-0.82;100.00
12178;BME280;6152;48.728;9.256;2023-01-26T05:57:34;97415.72;;;-0.82;100.00
12178;BME280;6152;48.728;9.256;2023-01-26T06:00:03;97409.88;;;-0.90;100.00
12178;BME280;6152;48.728;9.256;2023-01-26T06:02:29;97407.31;;;-0.90;100.00
12178;BME280;6152;48.728;9.256;2023-01-26T06:04:55;97410.69;;;-0.88;100.00
12178;BME280;6152;48.728;9.256;2023-01-26T06:07:21;97417.50;;;-0.88;100.00
12178;BME280;6152;48.728;9.256;2023-01-26T06:09:47;97421.75;;;-0.87;100.00
12178;BME280;6152;48.728;9.256;2023-01-26T06:12:16;97419.16;;;-0.83;100.00
12178;BME280;6152;48.728;9.256;2023-01-26T06:14:42;97416.53;;;-0.78;100.00
12178;BME280;6152;48.728;9.256;2023-01-26T06:17:09;97419.25;;;-0.92;100.00
12178;BME280;6152;48.728;9.256;2023-01-26T06:19:35;97424.38;;;-0.95;100.00
12178;BME280;6152;48.728;9.256;2023-01-26T06:22:02;97415.13;;;-1.04;100.00
12178;BME280;6152;48.728;9.256;2023-01-26T06:24:29;97421.06;;;-1.03;100.00
12178;BME280;6152;48.728;9.256;2023-01-26T06:26:55;97421.94;;;-1.04;100.00
12178;BME280;6152;48.728;9.256;2023-01-26T06:29:21;97420.22;;;-1.02;100.00
12178;BME280;6152;48.728;9.256;2023-01-26T06:31:47;97425.34;;;-1.04;100.00
12178;BME280;6152;48.728;9.256;2023-01-26T06:34:13;97423.63;;;-1.03;100.00
12178;BME280;6152;48.728;9.256;2023-01-26T06:36:39;97421.06;;;-1.03;100.00
12178;BME280;6152;48.728;9.256;2023-01-26T06:39:07;97426.13;;;-0.97;100.00
12178;BME280;6152;48.728;9.256;2023-01-26T06:41:35;97416.81;;;-1.03;100.00
12178;BME280;6152;48.728;9.256;2023-01-26T06:44:01;97420.28;;;-1.08;100.00
12178;BME280;6152;48.728;9.256;2023-01-26T06:46:27;97421.94;;;-1.06;100.00
12178;BME280;6152;48.728;9.256;2023-01-26T06:48:53;97416.88;;;-1.07;100.00
12178;BME280;6152;48.728;9.256;2023-01-26T06:53:52;97414.47;;;-1.21;100.00
12178;BME280;6152;48.728;9.256;2023-01-26T06:56:19;97416.94;;;-1.16;100.00
12178;BME280;6152;48.728;9.256;2023-01-26T06:58:46;97415.25;;;-1.16;100.00
12178;BME280;6152;48.728;9.256;2023-01-26T07:01:20;97410.97;;;-1.15;100.00
12178;BME280;6152;48.728;9.256;2023-01-26T07:03:48;97413.53;;;-1.15;100.00
12178;BME280;6152;48.728;9.256;2023-01-26T07:06:14;97417.78;;;-1.17;100.00
12178;BME280;6152;48.728;9.256;2023-01-26T07:08:40;97411.91;;;-1.21;100.00
12178;BME280;6152;48.728;9.256;2023-01-26T07:11:08;97419.47;;;-1.13;100.00
12178;BME280;6152;48.728;9.256;2023-01-26T07:13:35;97426.31;;;-1.17;100.00
12178;BME280;6152;48.728;9.256;2023-01-26T07:16:05;97422.91;;;-1.14;100.00
12178;BME280;6152;48.728;9.256;2023-01-26T07:18:32;97424.50;;;-1.04;100.00
12178;BME280;6152;48.728;9.256;2023-01-26T07:21:02;97421.25;;;-1.21;100.00
12178;BME280;6152;48.728;9.256;2023-01-26T07:23:29;97426.34;;;-1.20;100.00
12178;BME280;6152;48.728;9.256;2023-01-26T07:25:56;97428.84;;;-1.17;100.00
12178;BME280;6152;48.728;9.256;2023-01-26T07:28:22;97436.44;;;-1.09;100.00
12178;BME280;6152;48.728;9.256;2023-01-26T07:30:48;97430.41;;;-1.00;100.00
12178;BME280;6152;48.728;9.256;2023-01-26T07:33:14;97433.94;;;-1.11;100.00
12178;BME280;6152;48.728;9.256;2023-01-26T07:35:40;97433.16;;;-1.20;100.00
12178;BME280;6152;48.728;9.256;2023-01-26T07:38:07;97436.53;;;-1.18;100.00
12178;BME280;6152;48.728;9.256;2023-01-26T07:40:33;97431.47;;;-1.21;100.00
12178;BME280;6152;48.728;9.256;2023-01-26T07:42:59;97430.59;;;-1.19;100.00
12178;BME280;6152;48.728;9.256;2023-01-26T07:45:28;97426.34;;;-1.18;100.00
12178;BME280;6152;48.728;9.256;2023-01-26T07:47:55;97433.13;;;-1.17;100.00
12178;BME280;6152;48.728;9.256;2023-01-26T07:50:22;97432.22;;;-1.13;100.00
12178;BME280;6152;48.728;9.256;2023-01-26T07:52:50;97437.34;;;-1.12;100.00
12178;BME280;6152;48.728;9.256;2023-01-26T07:55:19;97439.84;;;-1.10;100.00
12178;BME280;6152;48.728;9.256;2023-01-26T07:57:49;97435.53;;;-1.02;100.00
12178;BME280;6152;48.728;9.256;2023-01-26T08:00:17;97434.69;;;-1.01;100.00
12178;BME280;6152;48.728;9.256;2023-01-26T08:02:43;97428.75;;;-1.05;100.00
12178;BME280;6152;48.728;9.256;2023-01-26T08:05:09;97429.50;;;-0.93;100.00
12178;BME280;6152;48.728;9.256;2023-01-26T08:07:36;97436.31;;;-0.94;100.00
12178;BME280;6152;48.728;9.256;2023-01-26T08:10:02;97428.66;;;-0.95;100.00
12178;BME280;6152;48.728;9.256;2023-01-26T08:12:28;97426.09;;;-0.94;100.00
12178;BME280;6152;48.728;9.256;2023-01-26T08:14:55;97428.56;;;-0.88;100.00
12178;BME280;6152;48.728;9.256;2023-01-26T08:17:21;97432.78;;;-0.84;100.00
12178;BME280;6152;48.728;9.256;2023-01-26T08:19:47;97432.88;;;-0.90;100.00
12178;BME280;6152;48.728;9.256;2023-01-26T08:22:13;97432.84;;;-0.87;100.00
12178;BME280;6152;48.728;9.256;2023-01-26T08:24:39;97432.72;;;-0.79;100.00
12178;BME280;6152;48.728;9.256;2023-01-26T08:27:05;97427.66;;;-0.81;100.00
12178;BME280;6152;48.728;9.256;2023-01-26T08:29:31;97422.59;;;-0.87;100.00
12178;BME280;6152;48.728;9.256;2023-01-26T08:31:57;97426.06;;;-0.91;100.00
12178;BME280;6152;48.728;9.256;2023-01-26T08:34:23;97426.09;;;-0.95;100.00
12178;BME280;6152;48.728;9.256;2023-01-26T08:36:51;97428.66;;;-0.94;100.00
12178;BME280;6152;48.728;9.256;2023-01-26T08:39:17;97426.97;;;-0.98;100.00
12178;BME280;6152;48.728;9.256;2023-01-26T08:41:43;97424.47;;;-1.01;100.00
12178;BME280;6152;48.728;9.256;2023-01-26T08:44:10;97426.16;;;-1.02;100.00
12178;BME280;6152;48.728;9.256;2023-01-26T08:46:36;97427.78;;;-0.96;100.00
12178;BME280;6152;48.728;9.256;2023-01-26T08:49:02;97419.25;;;-0.92;100.00
12178;BME280;6152;48.728;9.256;2023-01-26T08:51:28;97421.75;;;-0.87;100.00
12178;BME280;6152;48.728;9.256;2023-01-26T08:53:54;97420.91;;;-0.88;100.00
12178;BME280;6152;48.728;9.256;2023-01-26T08:56:20;97418.41;;;-0.92;100.00
12178;BME280;6152;48.728;9.256;2023-01-26T08:58:47;97415.84;;;-0.91;100.00
12178;BME280;6152;48.728;9.256;2023-01-26T09:01:15;97418.34;;;-0.88;100.00
12178;BME280;6152;48.728;9.256;2023-01-26T09:03:41;97419.25;;;-0.92;100.00
12178;BME280;6152;48.728;9.256;2023-01-26T09:06:10;97422.59;;;-0.87;100.00
12178;BME280;6152;48.728;9.256;2023-01-26T09:08:36;97417.47;;;-0.84;100.00
12178;BME280;6152;48.728;9.256;2023-01-26T09:11:05;97418.34;;;-0.86;100.00
12178;BME280;6152;48.728;9.256;2023-01-26T09:13:32;97419.94;;;-0.76;100.00
12178;BME280;6152;48.728;9.256;2023-01-26T09:16:01;97420.03;;;-0.84;100.00
12178;BME280;6152;48.728;9.256;2023-01-26T09:18:27;97415.84;;;-0.92;100.00
12178;BME280;6152;48.728;9.256;2023-01-26T09:20:53;97414.94;;;-0.87;100.00
12178;BME280;6152;48.728;9.256;2023-01-26T09:23:20;97420.09;;;-0.90;100.00
12178;BME280;6152;48.728;9.256;2023-01-26T09:25:52;97412.50;;;-0.99;100.00
12178;BME280;6152;48.728;9.256;2023-01-26T09:28:18;97421.03;;;-0.97;100.00
12178;BME280;6152;48.728;9.256;2023-01-26T09:30:44;97420.19;;;-1.00;100.00
12178;BME280;6152;48.728;9.256;2023-01-26T09:33:10;97424.28;;;-0.86;100.00
12178;BME280;6152;48.728;9.256;2023-01-26T09:35:36;97426.03;;;-0.88;100.00
12178;BME280;6152;48.728;9.256;2023-01-26T09:38:02;97425.13;;;-0.85;100.00
12178;BME280;6152;48.728;9.256;2023-01-26T09:40:52;97431.94;;;-0.86;100.00
12178;BME280;6152;48.728;9.256;2023-01-26T09:43:36;97429.38;;;-0.86;100.00
12178;BME280;6152;48.728;9.256;2023-01-26T09:51:34;97437.88;;;-0.81;100.00
12178;BME280;6152;48.728;9.256;2023-01-26T09:54:30;97426.72;;;-0.74;100.00
12178;BME280;6152;48.728;9.256;2023-01-26T09:57:10;97425.91;;;-0.79;100.00
12178;BME280;6152;48.728;9.256;2023-01-26T09:59:59;97426.75;;;-0.78;100.00
12178;BME280;6152;48.728;9.256;2023-01-26T10:02:49;97435.16;;;-0.69;100.00
12178;BME280;6152;48.728;9.256;2023-01-26T10:08:00;97430.13;;;-0.73;100.00
12178;BME280;6152;48.728;9.256;2023-01-26T10:10:29;97432.63;;;-0.72;100.00
12178;BME280;6152;48.728;9.256;2023-01-26T10:12:57;97422.59;;;-0.87;100.00
12178;BME280;6152;48.728;9.256;2023-01-26T10:15:37;97426.03;;;-0.88;100.00
12178;BME280;6152;48.728;9.256;2023-01-26T10:18:07;97429.44;;;-0.89;100.00
12178;BME280;6152;48.728;9.256;2023-01-26T10:20:41;97433.66;;;-0.85;100.00
12178;BME280;6152;48.728;9.256;2023-01-26T10:23:16;97427.84;;;-0.99;100.00
12178;BME280;6152;48.728;9.256;2023-01-26T10:25:43;97422.78;;;-1.04;100.00
12178;BME280;6152;48.728;9.256;2023-01-26T10:30:48;97423.59;;;-1.00;100.00
12178;BME280;6152;48.728;9.256;2023-01-26T10:35:45;97427.75;;;-0.93;100.00
12178;BME280;6152;48.728;9.256;2023-01-26T10:38:47;97429.47;;;-0.92;100.00
12178;BME280;6152;48.728;9.256;2023-01-26T10:43:53;97422.66;;;-0.90;100.00
12178;BME280;6152;48.728;9.256;2023-01-26T10:46:32;97424.34;;;-0.92;100.00
12178;BME280;6152;48.728;9.256;2023-01-26T10:49:02;97422.63;;;-0.88;100.00
12178;BME280;6152;48.728;9.256;2023-01-26T10:51:33;97427.69;;;-0.84;100.00
12178;BME280;6152;48.728;9.256;2023-01-26T10:56:56;97424.44;;;-0.98;100.00
12178;BME280;6152;48.728;9.256;2023-01-26T11:02:18;97422.66;;;-0.90;100.00
12178;BME280;6152;48.728;9.256;2023-01-26T11:05:03;97418.34;;;-0.88;100.00
12178;BME280;6152;48.728;9.256;2023-01-26T11:07:40;97422.56;;;-0.84;100.00
12178;BME280;6152;48.728;9.256;2023-01-26T11:13:02;97419.16;;;-0.83;100.00
12178;BME280;6152;48.728;9.256;2023-01-26T11:15:35;97414.06;;;-0.86;100.00
12178;BME280;6152;48.728;9.256;2023-01-26T11:18:12;97413.16;;;-0.82;100.00
12178;BME280;6152;48.728;9.256;2023-01-26T11:20:49;97415.81;;;-0.89;100.00
12178;BME280;6152;48.728;9.256;2023-01-26T11:28:54;97395.25;;;-0.79;100.00
12178;BME280;6152;48.728;9.256;2023-01-26T11:34:02;97391.00;;;-0.77;100.00
12178;BME280;6152;48.728;9.256;2023-01-26T11:39:28;97392.63;;;-0.71;100.00
12178;BME280;6152;48.728;9.256;2023-01-26T11:42:23;97391.75;;;-0.72;100.00
12178;BME280;6152;48.728;9.256;2023-01-26T11:45:16;97389.41;;;-0.88;100.00
12178;BME280;6152;48.728;9.256;2023-01-26T11:56:16;97384.56;;;-1.13;100.00
12178;BME280;6152;48.728;9.256;2023-01-26T11:58:52;97382.88;;;-1.12;100.00
12178;BME280;6152;48.728;9.256;2023-01-26T12:01:41;97378.59;;;-1.13;100.00
12178;BME280;6152;48.728;9.256;2023-01-26T12:04:20;97370.00;;;-1.03;100.00
12178;BME280;6152;48.728;9.256;2023-01-26T12:06:52;97369.06;;;-0.94;100.00
12178;BME280;6152;48.728;9.256;2023-01-26T12:09:40;97363.06;;;-0.92;100.00
12178;BME280;6152;48.728;9.256;2023-01-26T12:12:39;97360.47;;;-0.89;100.00
12178;BME280;6152;48.728;9.256;2023-01-26T12:15:18;97359.75;;;-1.00;100.00
12178;BME280;6152;48.728;9.256;2023-01-26T12:17:59;97351.19;;;-0.94;100.00
12178;BME280;6152;48.728;9.256;2023-01-26T12:20:47;97354.66;;;-1.02;100.00
12178;BME280;6152;48.728;9.256;2023-01-26T12:23:29;97359.59;;;-0.88;100.00
12178;BME280;6152;48.728;9.256;2023-01-26T12:26:02;97349.50;;;-0.97;100.00
12178;BME280;6152;48.728;9.256;2023-01-26T12:33:45;97338.38;;;-0.93;100.00
12178;BME280;6152;48.728;9.256;2023-01-26T12:39:09;97338.53;;;-1.07;100.00
12178;BME280;6152;48.728;9.256;2023-01-26T12:44:35;97333.41;;;-1.05;100.00
12178;BME280;6152;48.728;9.256;2023-01-26T12:47:16;97333.41;;;-1.05;100.00
12178;BME280;6152;48.728;9.256;2023-01-26T12:53:26;97316.28;;;-0.94;100.00
12178;BME280;6152;48.728;9.256;2023-01-26T12:55:52;97318.72;;;-0.86;100.00
12178;BME280;6152;48.728;9.256;2023-01-26T12:58:35;97317.03;;;-0.87;100.00
12178;BME280;6152;48.728;9.256;2023-01-26T13:01:20;97316.13;;;-0.83;100.00
12178;BME280;6152;48.728;9.256;2023-01-26T13:03:57;97323.00;;;-0.88;100.00
12178;BME280;6152;48.728;9.256;2023-01-26T13:06:25;97325.69;;;-0.99;100.00
12178;BME280;6152;48.728;9.256;2023-01-26T13:08:59;97327.53;;;-1.13;100.00
12178;BME280;6152;48.728;9.256;2023-01-26T13:11:42;97319.84;;;-1.10;100.00
12178;BME280;6152;48.728;9.256;2023-01-26T13:16:53;97320.78;;;-1.16;100.00
12178;BME280;6152;48.728;9.256;2023-01-26T13:19:35;97324.19;;;-1.15;100.00
12178;BME280;6152;48.728;9.256;2023-01-26T13:22:02;97318.19;;;-1.13;100.00
12178;BME280;6152;48.728;9.256;2023-01-26T13:26:56;97319.00;;;-1.09;100.00
12178;BME280;6152;48.728;9.256;2023-01-26T13:34:54;97310.47;;;-1.08;100.00
12178;BME280;6152;48.728;9.256;2023-01-26T13:39:54;97308.88;;;-1.17;100.00
12178;BME280;6152;48.728;9.256;2023-01-26T13:42:36;97312.22;;;-1.13;100.00
12178;BME280;6152;48.728;9.256;2023-01-26T13:45:15;97308.81;;;-1.12;100.00
12178;BME280;6152;48.728;9.256;2023-01-26T13:47:46;97304.56;;;-1.13;100.00
12178;BME280;6152;48.728;9.256;2023-01-26T13:50:58;97313.13;;;-1.14;100.00
12178;BME280;6152;48.728;9.256;2023-01-26T13:53:37;97312.09;;;-1.01;100.00
12178;BME280;6152;48.728;9.256;2023-01-26T13:56:20;97318.09;;;-1.05;100.00
12178;BME280;6152;48.728;9.256;2023-01-26T13:58:46;97315.63;;;-1.11;100.00
12178;BME280;6152;48.728;9.256;2023-01-26T14:01:14;97315.59;;;-1.10;100.00
12178;BME280;6152;48.728;9.256;2023-01-26T14:03:42;97314.75;;;-1.10;100.00
12178;BME280;6152;48.728;9.256;2023-01-26T14:06:17;97322.41;;;-1.10;100.00
12178;BME280;6152;48.728;9.256;2023-01-26T14:08:52;97316.34;;;-1.02;100.00
12178;BME280;6152;48.728;9.256;2023-01-26T14:11:21;97313.00;;;-1.04;100.00
12178;BME280;6152;48.728;9.256;2023-01-26T14:13:59;97313.94;;;-1.14;100.00
12178;BME280;6152;48.728;9.256;2023-01-26T14:16:29;97322.44;;;-1.13;100.00
12178;BME280;6152;48.728;9.256;2023-01-26T14:21:48;97322.56;;;-1.22;100.00
12178;BME280;6152;48.728;9.256;2023-01-26T14:24:15;97328.47;;;-1.19;100.00
12178;BME280;6152;48.728;9.256;2023-01-26T14:26:42;97327.69;;;-1.25;100.00
12178;BME280;6152;48.728;9.256;2023-01-26T14:29:20;97325.03;;;-1.16;100.00
12178;BME280;6152;48.728;9.256;2023-01-26T14:31:47;97326.81;;;-1.21;100.00
12178;BME280;6152;48.728;9.256;2023-01-26T14:34:19;97320.94;;;-1.29;100.00
12178;BME280;6152;48.728;9.256;2023-01-26T14:36:46;97330.28;;;-1.28;100.00
12178;BME280;6152;48.728;9.256;2023-01-26T14:39:17;97334.50;;;-1.24;100.00